createdAt,value
2022-09-02T00:00:21.006Z,57.14
2022-09-02T00:05:52.211Z,56.86
2022-09-02T00:11:27.596Z,57.00
2022-09-02T00:17:01.127Z,57.20
2022-09-02T00:22:32.446Z,56.99
2022-09-02T00:28:04.399Z,57.41
2022-09-02T00:33:37.476Z,57.29
2022-09-02T00:39:09.017Z,56.95
2022-09-02T00:44:39.840Z,57.30
2022-09-02T00:50:13.820Z,57.05
2022-09-02T00:55:48.148Z,57.00
2022-09-02T01:01:20.954Z,57.32
2022-09-02T01:06:52.419Z,57.43
2022-09-02T01:12:24.514Z,57.26
2022-09-02T01:17:55.584Z,57.43
2022-09-02T01:23:29.357Z,57.31
2022-09-02T01:29:04.318Z,57.82
2022-09-02T01:34:35.603Z,57.54
2022-09-02T01:40:09.899Z,57.20
2022-09-02T01:45:43.115Z,57.60
2022-09-02T01:51:20.511Z,57.31
2022-09-02T01:56:52.490Z,57.56
2022-09-02T02:02:23.850Z,57.75
2022-09-02T02:07:57.648Z,57.58
2022-09-02T02:13:28.867Z,57.97
2022-09-02T02:18:59.990Z,57.73
2022-09-02T02:24:31.143Z,57.67
2022-09-02T02:30:02.259Z,57.87
2022-09-02T02:35:35.743Z,57.50
2022-09-02T02:41:07.946Z,57.76
2022-09-02T02:46:39.232Z,57.88
2022-09-02T02:52:12.787Z,57.74
2022-09-02T02:57:44.906Z,57.64
2022-09-02T03:03:19.901Z,58.18
2022-09-02T03:08:54.487Z,57.58
2022-09-02T03:14:26.396Z,57.64
2022-09-02T03:19:59.590Z,57.50
2022-09-02T03:25:36.109Z,57.74
2022-09-02T03:31:20.182Z,57.68
2022-09-02T03:36:51.545Z,58.25
2022-09-02T03:42:23.671Z,57.67
2022-09-02T03:47:56.411Z,57.70
2022-09-02T03:53:32.074Z,57.69
2022-09-02T03:59:04.567Z,57.54
2022-09-02T04:04:36.703Z,57.83
2022-09-02T04:10:10.004Z,57.65
2022-09-02T04:15:45.106Z,57.81
2022-09-02T04:21:16.958Z,57.68
2022-09-02T04:26:48.119Z,57.81
2022-09-02T04:32:22.005Z,57.78
2022-09-02T04:37:54.918Z,57.61
2022-09-02T04:43:26.473Z,57.63
2022-09-02T04:48:58.078Z,57.61
2022-09-02T04:54:29.571Z,57.87
2022-09-02T05:00:08.822Z,57.76
2022-09-02T05:05:40.598Z,57.93
2022-09-02T05:11:18.658Z,57.83
2022-09-02T05:16:54.713Z,57.77
2022-09-02T05:22:29.765Z,57.84
2022-09-02T05:28:04.443Z,57.58
2022-09-02T05:33:41.213Z,57.50
2022-09-02T05:39:14.345Z,57.60
2022-09-02T05:44:47.381Z,57.70
2022-09-02T05:50:23.134Z,57.69
2022-09-02T05:55:55.794Z,57.62
2022-09-02T06:01:29.726Z,57.50
2022-09-02T06:07:01.257Z,57.58
2022-09-02T06:12:33.388Z,57.86
2022-09-02T06:18:04.655Z,57.70
2022-09-02T06:23:39.276Z,57.85
2022-09-02T06:29:13.836Z,57.92
2022-09-02T06:34:44.976Z,57.65
2022-09-02T06:40:18.964Z,57.80
2022-09-02T06:45:52.292Z,57.59
2022-09-02T06:51:36.405Z,57.61
2022-09-02T06:57:08.316Z,57.71
2022-09-02T07:02:41.152Z,57.59
2022-09-02T07:08:13.782Z,57.36
2022-09-02T07:13:46.484Z,57.23
2022-09-02T07:19:21.028Z,57.37
2022-09-02T07:24:53.045Z,57.33
2022-09-02T07:30:24.846Z,56.89
2022-09-02T07:36:12.205Z,57.05
2022-09-02T07:41:49.297Z,56.53
2022-09-02T07:47:22.528Z,56.53
2022-09-02T07:52:58.379Z,56.63
2022-09-02T07:58:32.540Z,56.40
2022-09-02T08:04:06.499Z,56.83
2022-09-02T08:09:40.189Z,56.54
2022-09-02T08:15:12.583Z,56.07
2022-09-02T08:20:43.537Z,55.90
2022-09-02T08:26:14.747Z,55.79
2022-09-02T08:31:46.959Z,55.85
2022-09-02T08:37:19.937Z,55.96
2022-09-02T08:42:52.139Z,55.82
2022-09-02T08:48:32.609Z,55.66
2022-09-02T08:54:14.634Z,55.21
2022-09-02T08:59:46.239Z,55.21
2022-09-02T09:05:44.372Z,55.19
2022-09-02T09:11:21.503Z,55.22
2022-09-02T09:16:59.341Z,55.39
2022-09-02T09:22:37.611Z,55.14
2022-09-02T09:28:08.933Z,55.00
2022-09-02T09:33:41.891Z,55.15
2022-09-02T09:39:25.443Z,54.85
2022-09-02T09:44:56.443Z,55.11
2022-09-02T09:50:28.283Z,55.02
2022-09-02T09:56:08.127Z,54.76
2022-09-02T10:01:39.389Z,55.08
2022-09-02T10:07:13.681Z,54.97
2022-09-02T10:12:46.626Z,54.66
2022-09-02T10:18:28.865Z,54.62
2022-09-02T10:24:28.083Z,54.52
2022-09-02T10:30:18.949Z,54.39
2022-09-02T10:36:00.184Z,54.53
2022-09-02T10:47:36.531Z,54.15
2022-09-02T10:53:13.823Z,54.36
2022-09-02T10:59:06.347Z,54.23
2022-09-02T11:04:42.393Z,54.27
2022-09-02T11:10:27.760Z,54.39
2022-09-02T11:16:13.349Z,54.00
2022-09-02T11:21:56.791Z,54.19
2022-09-02T11:27:53.279Z,53.99
2022-09-02T11:33:33.446Z,54.01
2022-09-02T11:39:25.841Z,53.82
2022-09-02T11:45:28.243Z,53.91
2022-09-02T11:57:02.073Z,53.64
2022-09-02T12:03:28.527Z,53.64
2022-09-02T12:09:03.847Z,53.47
2022-09-02T12:14:34.721Z,53.28
2022-09-02T12:20:08.784Z,53.10
2022-09-02T12:25:49.841Z,53.45
2022-09-02T12:31:43.544Z,53.01
2022-09-02T12:37:54.254Z,53.29
2022-09-02T12:43:31.324Z,53.18
2022-09-02T12:49:14.659Z,53.12
2022-09-02T12:54:49.350Z,53.05
2022-09-02T13:00:34.349Z,53.05
2022-09-02T13:06:24.068Z,53.07
2022-09-02T13:12:24.230Z,53.18
2022-09-02T13:18:26.430Z,53.15
2022-09-02T13:24:03.721Z,52.92
2022-09-02T13:29:50.330Z,52.82
2022-09-02T13:35:25.288Z,53.01
2022-09-02T13:40:57.356Z,53.06
2022-09-02T13:46:28.535Z,52.66
2022-09-02T13:51:59.784Z,52.58
2022-09-02T13:57:32.460Z,52.51
2022-09-02T14:03:12.667Z,52.75
2022-09-02T14:08:44.461Z,52.80
2022-09-02T14:14:17.905Z,52.61
2022-09-02T14:19:49.258Z,52.68
2022-09-02T14:25:32.351Z,52.86
2022-09-02T14:31:08.511Z,52.90
2022-09-02T14:36:40.487Z,53.01
2022-09-02T14:42:11.956Z,53.07
2022-09-02T14:47:43.152Z,53.25
2022-09-02T14:53:21.172Z,53.11
2022-09-02T14:58:52.626Z,53.20
2022-09-02T15:04:23.679Z,53.12
2022-09-02T15:09:54.938Z,52.93
2022-09-02T15:15:27.334Z,53.04
2022-09-02T15:20:58.729Z,53.14
2022-09-02T15:26:30.423Z,53.05
2022-09-02T15:32:03.226Z,53.23
2022-09-02T15:37:37.891Z,53.16
2022-09-02T15:43:09.017Z,53.47
2022-09-02T15:48:41.022Z,53.46
2022-09-02T15:54:16.429Z,53.41
2022-09-02T15:59:48.677Z,53.63
2022-09-02T16:05:21.705Z,53.74
2022-09-02T16:10:53.319Z,53.71
2022-09-02T16:16:24.462Z,53.80
2022-09-02T16:21:55.768Z,54.01
2022-09-02T16:27:45.434Z,53.92
2022-09-02T16:33:16.509Z,53.99
2022-09-02T16:38:47.935Z,53.66
2022-09-02T16:44:21.970Z,53.91
2022-09-02T16:49:53.435Z,53.74
2022-09-02T16:55:25.087Z,53.84
2022-09-02T17:00:57.366Z,54.10
2022-09-02T17:06:29.557Z,54.32
2022-09-02T17:12:00.698Z,54.02
2022-09-02T17:17:31.890Z,54.42
2022-09-02T17:23:04.737Z,54.37
2022-09-02T17:28:35.875Z,54.18
2022-09-02T17:34:07.991Z,54.43
2022-09-02T17:39:38.954Z,54.67
2022-09-02T17:45:10.770Z,54.78
2022-09-02T17:50:42.101Z,54.64
2022-09-02T17:56:35.924Z,54.85
2022-09-02T18:02:10.027Z,54.80
2022-09-02T18:07:51.081Z,54.91
2022-09-02T18:13:36.421Z,54.65
2022-09-02T18:19:13.869Z,54.83
2022-09-02T18:25:08.614Z,54.69
2022-09-02T18:30:46.519Z,54.79
2022-09-02T18:36:34.396Z,54.78
2022-09-02T18:42:26.837Z,54.56
2022-09-02T18:48:14.400Z,54.78
2022-09-02T18:53:49.733Z,54.59
2022-09-02T18:59:35.576Z,54.67
2022-09-02T19:05:10.006Z,54.20
2022-09-02T19:10:41.826Z,54.10
2022-09-02T19:16:16.398Z,53.75
2022-09-02T19:21:56.361Z,53.51
2022-09-02T19:27:38.268Z,53.72
2022-09-02T19:33:13.861Z,53.69
2022-09-02T19:38:45.824Z,53.56
2022-09-02T19:44:18.555Z,53.46
2022-09-02T19:49:49.658Z,53.83
2022-09-02T19:55:21.517Z,53.68
2022-09-02T20:00:54.539Z,53.63
2022-09-02T20:06:26.196Z,53.99
2022-09-02T20:11:57.235Z,53.50
2022-09-02T20:17:31.450Z,53.76
2022-09-02T20:23:03.037Z,53.65
2022-09-02T20:28:45.645Z,53.31
2022-09-02T20:34:21.978Z,53.59
2022-09-02T20:40:03.745Z,53.66
2022-09-02T20:45:45.148Z,53.90
2022-09-02T20:51:54.687Z,53.70
2022-09-02T20:57:30.113Z,53.22
2022-09-02T21:03:11.507Z,53.81
2022-09-02T21:09:05.348Z,53.51
2022-09-02T21:14:45.267Z,53.68
2022-09-02T21:20:38.663Z,53.97
2022-09-02T21:26:31.396Z,53.75
2022-09-02T21:32:29.811Z,53.97
2022-09-02T21:38:24.669Z,54.08
2022-09-02T21:44:34.436Z,53.90
2022-09-02T21:50:21.911Z,53.52
2022-09-02T21:56:21.550Z,53.85
2022-09-02T22:02:01.860Z,53.83
2022-09-02T22:07:55.835Z,54.25
2022-09-02T22:13:30.423Z,54.14
2022-09-02T22:19:03.822Z,53.77
2022-09-02T22:24:37.496Z,54.39
2022-09-02T22:30:14.641Z,54.02
2022-09-02T22:35:54.768Z,54.34
2022-09-02T22:41:29.518Z,54.06
2022-09-02T22:47:24.794Z,54.34
2022-09-02T22:52:55.959Z,54.14
2022-09-02T22:58:47.784Z,53.70
2022-09-02T23:04:43.668Z,55.41
2022-09-02T23:10:20.275Z,54.63
2022-09-02T23:16:14.506Z,55.72
2022-09-02T23:22:07.700Z,54.06
2022-09-02T23:27:48.016Z,54.36
2022-09-02T23:33:49.679Z,54.59
2022-09-02T23:39:25.287Z,55.27
2022-09-02T23:45:02.026Z,54.81
2022-09-02T23:50:49.347Z,55.02
2022-09-02T23:56:33.798Z,53.92
